METAR Data
IDs: Format: Raw Decoded Include TAF

Data at: 1703 UTC 19 Sep 2018

METAR for:KMLB (Melbourne Intl, FL, US)
Text:KMLB 191653Z 25003KT 10SM FEW038 33/23 A2997 RMK AO2 SLP148 T03280233
Temperature: 32.8°C ( 91°F)
Dewpoint: 23.3°C ( 74°F) [RH = 58%]
Pressure (altimeter):29.97 inches Hg (1015.0 mb) [Sea level pressure: 1014.8 mb]
Winds:from the WSW (250 degrees) at 3 MPH (3 knots; 1.5 m/s)
Visibility:10 or more sm (16+ km)
Ceiling:at least 12,000 feet AGL
Clouds: few clouds at 3800 feet AGL